Time;durP1;ratioP1;P1;durP2;ratioP2;P2;SDS_P1;SDS_P2;PMS_P1;PMS_P2;Temp;Humidity;BMP_temperature;BMP_pressure;BME280_temperature;BME280_humidity;BME280_pressure;Samples;Min_cycle;Max_cycle;Signal;HPM_P1;HPM_P2
2021/12/15 00:03:00;;;;;;;32.10;28.77;;;;;;;;;;12494056;28;20037;-74
2021/12/15 00:09:04;;;;;;;30.33;27.33;;;;;;;;;;12477709;28;20384;-74
2021/12/15 00:15:06;;;;;;;33.38;29.90;;;;;;;;;;12495072;28;20037;-74
2021/12/15 00:21:09;;;;;;;34.57;31.03;;;;;;;;;;12495154;28;20075;-75
2021/12/15 00:27:11;;;;;;;29.35;26.48;;;;;;;;;;12477069;28;20049;-74
2021/12/15 00:33:13;;;;;;;28.88;25.95;;;;;;;;;;12494498;28;20029;-74
2021/12/15 00:39:17;;;;;;;35.15;30.17;;;;;;;;;;12493404;28;20034;-74
2021/12/15 00:45:18;;;;;;;37.55;33.80;;;;;;;;;;12493292;28;20040;-75
2021/12/15 00:51:20;;;;;;;34.08;30.80;;;;;;;;;;12494008;28;20053;-75
2021/12/15 00:57:22;;;;;;;30.85;27.75;;;;;;;;;;12493675;28;20049;-74
2021/12/15 01:03:24;;;;;;;31.70;28.50;;;;;;;;;;12494065;28;20049;-74
2021/12/15 01:09:30;;;;;;;29.35;26.25;;;;;;;;;;12496439;28;20037;-74
2021/12/15 01:21:55;;;;;;;27.75;25.00;;;;;;;;;;12501835;28;20033;-74
2021/12/15 01:27:57;;;;;;;27.75;24.95;;;;;;;;;;12502592;28;20415;-74
2021/12/15 01:33:59;;;;;;;26.88;24.17;;;;;;;;;;12501328;28;20406;-74
2021/12/15 01:40:01;;;;;;;29.27;26.23;;;;;;;;;;12502120;28;20025;-74
2021/12/15 01:52:31;;;;;;;25.83;23.20;;;;;;;;;;12501544;28;20042;-74
2021/12/15 01:58:33;;;;;;;26.88;24.02;;;;;;;;;;12502144;28;20128;-74
2021/12/15 02:04:35;;;;;;;25.17;22.65;;;;;;;;;;12499629;28;20037;-74
2021/12/15 02:10:39;;;;;;;27.10;24.40;;;;;;;;;;12483086;28;20056;-74
2021/12/15 02:16:41;;;;;;;24.10;21.73;;;;;;;;;;12501167;28;20355;-74
2021/12/15 02:22:43;;;;;;;25.88;23.35;;;;;;;;;;12498697;28;20037;-74
2021/12/15 02:28:47;;;;;;;26.08;23.42;;;;;;;;;;12498600;28;20053;-74
2021/12/15 02:41:23;;;;;;;22.92;20.83;;;;;;;;;;12500213;28;20030;-74
2021/12/15 02:47:26;;;;;;;22.92;20.60;;;;;;;;;;12497993;28;20418;-75
2021/12/15 02:53:28;;;;;;;22.77;20.58;;;;;;;;;;12498720;28;20044;-74
2021/12/15 02:59:36;;;;;;;23.17;20.77;;;;;;;;;;12497635;28;20030;-74
2021/12/15 03:05:45;;;;;;;21.85;19.67;;;;;;;;;;12496898;28;20033;-74
2021/12/15 03:18:11;;;;;;;22.67;20.38;;;;;;;;;;12498051;28;20044;-73
2021/12/15 03:24:18;;;;;;;18.58;16.77;;;;;;;;;;12495933;28;20502;-73
2021/12/15 03:43:15;;;;;;;20.33;18.33;;;;;;;;;;12495248;28;20045;-73
2021/12/15 03:49:16;;;;;;;;;;;;;;;;;;12496429;28;20384;-73
2021/12/15 03:55:19;;;;;;;20.35;18.42;;;;;;;;;;12495685;28;19917;-73
2021/12/15 04:01:22;;;;;;;18.63;16.90;;;;;;;;;;12495766;28;20510;-73
2021/12/15 04:07:24;;;;;;;18.50;16.77;;;;;;;;;;12494204;28;20033;-73
2021/12/15 04:13:26;;;;;;;18.02;16.30;;;;;;;;;;12494001;28;20036;-73
2021/12/15 04:19:28;;;;;;;17.83;16.13;;;;;;;;;;12495234;28;20044;-73
2021/12/15 04:25:32;;;;;;;18.93;17.17;;;;;;;;;;12493567;28;20057;-73
2021/12/15 04:31:36;;;;;;;18.02;16.23;;;;;;;;;;12494707;28;20049;-74
2021/12/15 04:37:38;;;;;;;17.30;15.75;;;;;;;;;;12494843;28;20218;-74
2021/12/15 04:43:40;;;;;;;17.27;15.70;;;;;;;;;;12496856;28;20038;-74
2021/12/15 04:49:44;;;;;;;15.30;13.90;;;;;;;;;;12504679;28;20406;-74
2021/12/15 04:55:46;;;;;;;16.42;14.88;;;;;;;;;;12503312;28;20038;-74
2021/12/15 05:01:48;;;;;;;17.00;15.30;;;;;;;;;;12502735;28;20037;-74
2021/12/15 05:07:50;;;;;;;15.70;14.30;;;;;;;;;;12503703;28;20041;-74
2021/12/15 05:13:52;;;;;;;17.33;15.73;;;;;;;;;;12503428;28;20029;-74
2021/12/15 05:19:58;;;;;;;13.70;12.40;;;;;;;;;;12503209;28;20029;-74
2021/12/15 05:26:01;;;;;;;15.18;13.75;;;;;;;;;;12501378;28;20056;-74
2021/12/15 05:32:03;;;;;;;16.87;15.37;;;;;;;;;;12502735;28;20042;-73
2021/12/15 05:38:06;;;;;;;21.98;19.67;;;;;;;;;;12501174;28;20056;-74
2021/12/15 05:44:08;;;;;;;17.67;15.82;;;;;;;;;;12501883;28;20052;-74
2021/12/15 05:50:11;;;;;;;15.60;14.02;;;;;;;;;;12501596;28;20398;-74
2021/12/15 05:56:13;;;;;;;15.07;13.70;;;;;;;;;;12500836;28;20493;-73
2021/12/15 06:02:15;;;;;;;15.10;13.68;;;;;;;;;;12501228;28;20040;-74
2021/12/15 06:08:17;;;;;;;14.30;12.98;;;;;;;;;;12499842;28;20054;-74
2021/12/15 06:14:23;;;;;;;13.43;12.13;;;;;;;;;;12500292;28;20038;-74
2021/12/15 06:20:25;;;;;;;12.35;11.05;;;;;;;;;;12499285;28;20037;-74
2021/12/15 06:26:27;;;;;;;14.05;12.73;;;;;;;;;;12484525;28;20058;-74
2021/12/15 06:32:29;;;;;;;14.10;12.73;;;;;;;;;;12480653;28;20041;-74
2021/12/15 06:38:34;;;;;;;14.15;12.75;;;;;;;;;;12482012;28;20025;-73
2021/12/15 06:44:36;;;;;;;15.00;13.55;;;;;;;;;;12462072;28;20034;-73
2021/12/15 07:03:20;;;;;;;11.80;10.70;;;;;;;;;;12471310;28;20048;-73
2021/12/15 07:09:22;;;;;;;12.90;11.70;;;;;;;;;;12479658;28;20040;-73
2021/12/15 07:15:24;;;;;;;9.55;8.68;;;;;;;;;;12475655;28;20036;-74
2021/12/15 07:21:33;;;;;;;13.83;12.40;;;;;;;;;;12468731;28;20026;-74
2021/12/15 07:27:35;;;;;;;14.00;12.65;;;;;;;;;;12471637;28;20061;-74
2021/12/15 07:33:38;;;;;;;16.20;13.93;;;;;;;;;;12470957;28;20033;-74
2021/12/15 07:39:46;;;;;;;14.80;13.30;;;;;;;;;;12471647;28;20037;-74
2021/12/15 07:45:52;;;;;;;13.07;11.82;;;;;;;;;;12472169;28;20472;-74
2021/12/15 07:52:01;;;;;;;15.82;14.23;;;;;;;;;;12473232;28;20055;-73
2021/12/15 07:58:04;;;;;;;15.25;13.68;;;;;;;;;;12469739;28;20034;-74
2021/12/15 08:04:05;;;;;;;16.40;13.68;;;;;;;;;;12469095;28;20034;-74
2021/12/15 08:10:10;;;;;;;17.98;16.20;;;;;;;;;;12465153;28;20038;-75
2021/12/15 08:16:14;;;;;;;20.58;18.23;;;;;;;;;;12475908;28;20029;-73
2021/12/15 08:22:15;;;;;;;22.52;20.15;;;;;;;;;;12467789;28;20037;-75
2021/12/15 08:28:18;;;;;;;20.85;16.83;;;;;;;;;;12467964;28;20053;-76
2021/12/15 08:34:21;;;;;;;16.50;14.85;;;;;;;;;;12453656;28;20125;-75
2021/12/15 08:40:23;;;;;;;27.67;24.83;;;;;;;;;;12458222;28;20046;-74
2021/12/15 08:46:30;;;;;;;22.70;20.23;;;;;;;;;;12463513;28;20525;-74
2021/12/15 08:52:32;;;;;;;19.67;17.77;;;;;;;;;;12467147;28;20041;-74
2021/12/15 08:58:35;;;;;;;18.75;16.95;;;;;;;;;;12463729;28;20514;-80
2021/12/15 09:04:37;;;;;;;20.80;18.75;;;;;;;;;;12468531;28;20037;-80
2021/12/15 09:10:40;;;;;;;18.05;16.13;;;;;;;;;;12463001;28;20046;-78
2021/12/15 09:16:43;;;;;;;19.85;17.85;;;;;;;;;;12455140;28;20029;-78
2021/12/15 09:22:45;;;;;;;;;;;;;;;;;;12473354;28;20044;-72
2021/12/15 09:28:47;;;;;;;16.27;14.68;;;;;;;;;;12454788;28;19917;-74
2021/12/15 09:34:49;;;;;;;14.27;12.77;;;;;;;;;;12469913;28;20495;-74
2021/12/15 09:40:53;;;;;;;9.30;8.45;;;;;;;;;;12473887;28;20022;-76
2021/12/15 10:06:18;;;;;;;10.43;9.43;;;;;;;;;;12464954;28;20398;-74
2021/12/15 10:17:23;;;;;;;13.90;10.50;;;;;;;;;;12466263;28;20533;-73
2021/12/15 10:18:53;;;;;;;9.13;8.23;;;;;;;;;;12472073;28;20056;-73
2021/12/15 10:25:07;;;;;;;9.77;8.77;;;;;;;;;;12476452;28;20041;-72
2021/12/15 10:31:11;;;;;;;7.95;7.13;;;;;;;;;;12469364;28;20065;-73
2021/12/15 10:37:13;;;;;;;8.55;7.57;;;;;;;;;;12463056;28;20029;-73
2021/12/15 10:43:15;;;;;;;8.32;7.53;;;;;;;;;;12455090;28;20018;-73
2021/12/15 10:49:19;;;;;;;8.10;7.32;;;;;;;;;;12455263;28;20034;-73
2021/12/15 10:55:31;;;;;;;8.85;7.03;;;;;;;;;;12463463;28;20033;-73
2021/12/15 11:01:39;;;;;;;11.15;9.45;;;;;;;;;;12471666;28;20045;-73
2021/12/15 11:07:43;;;;;;;8.30;7.47;;;;;;;;;;12457242;28;20482;-73
2021/12/15 11:13:44;;;;;;;9.05;8.15;;;;;;;;;;12472239;28;20041;-73
2021/12/15 11:19:51;;;;;;;7.80;7.00;;;;;;;;;;12455575;28;20025;-74
2021/12/15 11:25:54;;;;;;;7.38;6.47;;;;;;;;;;12466649;28;20045;-74
2021/12/15 11:31:56;;;;;;;9.35;8.40;;;;;;;;;;12469466;28;20416;-75
2021/12/15 11:37:58;;;;;;;7.50;6.70;;;;;;;;;;12474596;28;20037;-77
2021/12/15 11:44:01;;;;;;;7.97;7.18;;;;;;;;;;12476881;28;20506;-77
2021/12/15 11:50:07;;;;;;;4.63;4.10;;;;;;;;;;12456642;28;20048;-74
2021/12/15 11:56:18;;;;;;;5.22;4.72;;;;;;;;;;12470770;28;20048;-76
2021/12/15 12:02:22;;;;;;;5.15;4.65;;;;;;;;;;12482615;28;20056;-75
2021/12/15 12:08:24;;;;;;;4.45;4.05;;;;;;;;;;12473697;28;20064;-75
2021/12/15 12:14:41;;;;;;;4.03;3.63;;;;;;;;;;12483890;28;20030;-75
2021/12/15 12:20:44;;;;;;;3.63;3.33;;;;;;;;;;12454678;28;20048;-74
2021/12/15 12:26:46;;;;;;;3.42;3.13;;;;;;;;;;12487142;28;20411;-74
2021/12/15 12:32:48;;;;;;;4.50;3.97;;;;;;;;;;12491268;28;20037;-74
2021/12/15 12:38:57;;;;;;;4.93;4.50;;;;;;;;;;12492909;28;20041;-73
2021/12/15 12:45:08;;;;;;;4.07;3.67;;;;;;;;;;12494116;28;20507;-73
2021/12/15 13:03:49;;;;;;;5.97;4.03;;;;;;;;;;12486885;28;20048;-74
2021/12/15 13:09:52;;;;;;;3.22;2.72;;;;;;;;;;12482638;28;20046;-73
2021/12/15 13:15:56;;;;;;;2.75;2.45;;;;;;;;;;12466119;28;20045;-74
2021/12/15 13:22:05;;;;;;;2.20;2.00;;;;;;;;;;12469536;28;20417;-74
2021/12/15 13:34:38;;;;;;;2.08;1.90;;;;;;;;;;12453214;28;20030;-73
2021/12/15 13:41:03;;;;;;;2.38;2.17;;;;;;;;;;12495340;28;20034;-73
2021/12/15 13:47:08;;;;;;;2.60;2.05;;;;;;;;;;12476171;28;20034;-73
2021/12/15 13:53:12;;;;;;;1.90;1.80;;;;;;;;;;12452117;28;20046;-73
2021/12/15 13:59:34;;;;;;;2.00;1.90;;;;;;;;;;12452635;28;20041;-73
2021/12/15 14:05:56;;;;;;;2.35;2.15;;;;;;;;;;12454089;28;20034;-74
2021/12/15 14:11:57;;;;;;;2.65;2.45;;;;;;;;;;12500575;28;20041;-74
2021/12/15 14:18:05;;;;;;;1.92;1.83;;;;;;;;;;12499770;28;20482;-74
2021/12/15 14:24:07;;;;;;;2.70;2.50;;;;;;;;;;12498746;28;20037;-74
2021/12/15 14:30:09;;;;;;;2.50;2.30;;;;;;;;;;12499645;28;20053;-74
2021/12/15 14:36:17;;;;;;;1.90;1.80;;;;;;;;;;12497759;28;20041;-74
2021/12/15 14:42:21;;;;;;;2.33;2.17;;;;;;;;;;12499386;28;20033;-74
2021/12/15 14:48:23;;;;;;;2.72;2.28;;;;;;;;;;12498945;28;20041;-73
2021/12/15 14:54:26;;;;;;;2.38;2.05;;;;;;;;;;12498566;28;20498;-73
2021/12/15 15:00:29;;;;;;;;;;;;;;;;;;12497777;28;20394;-73
2021/12/15 15:06:31;;;;;;;2.53;2.33;;;;;;;;;;12480184;28;19917;-73
2021/12/15 15:12:34;;;;;;;2.60;2.30;;;;;;;;;;12497885;28;20064;-73
2021/12/15 15:18:38;;;;;;;3.58;2.33;;;;;;;;;;12496083;28;20383;-72
2021/12/15 15:24:41;;;;;;;4.43;3.53;;;;;;;;;;12496779;28;20030;-72
2021/12/15 15:30:44;;;;;;;2.83;2.60;;;;;;;;;;12495727;28;20061;-74
2021/12/15 15:36:45;;;;;;;;;;;;;;;;;;12496769;28;20025;-73
2021/12/15 15:42:52;;;;;;;3.83;3.50;;;;;;;;;;12496276;28;20019;-73
2021/12/15 15:48:55;;;;;;;4.75;4.20;;;;;;;;;;12494802;28;20045;-73
2021/12/15 15:55:03;;;;;;;2.80;2.60;;;;;;;;;;12478298;28;20034;-72
2021/12/15 16:01:07;;;;;;;3.30;3.00;;;;;;;;;;12494626;28;20030;-74
2021/12/15 16:07:16;;;;;;;3.22;2.95;;;;;;;;;;12493810;28;20037;-73
2021/12/15 16:13:18;;;;;;;3.17;2.83;;;;;;;;;;12495389;28;20049;-73
2021/12/15 16:19:29;;;;;;;3.43;3.10;;;;;;;;;;12494940;28;20040;-74
2021/12/15 16:25:36;;;;;;;2.70;2.50;;;;;;;;;;12493075;28;20053;-77
2021/12/15 16:31:42;;;;;;;4.18;3.78;;;;;;;;;;12494298;28;20049;-78
2021/12/15 16:37:45;;;;;;;3.25;2.95;;;;;;;;;;12492660;28;20037;-76
2021/12/15 16:43:47;;;;;;;4.53;4.13;;;;;;;;;;12494139;28;20037;-74
2021/12/15 16:49:49;;;;;;;4.88;3.67;;;;;;;;;;12493786;28;20049;-75
2021/12/15 16:55:51;;;;;;;4.88;4.15;;;;;;;;;;12492937;28;20049;-74
2021/12/15 17:01:57;;;;;;;5.68;5.07;;;;;;;;;;12492374;28;20046;-74
2021/12/15 17:08:00;;;;;;;4.30;3.65;;;;;;;;;;12494068;28;20040;-73
2021/12/15 17:14:02;;;;;;;8.73;5.97;;;;;;;;;;12493130;28;20351;-73
2021/12/15 17:20:06;;;;;;;9.95;6.90;;;;;;;;;;12492152;28;20041;-74
2021/12/15 17:26:09;;;;;;;7.32;5.20;;;;;;;;;;12492027;28;20423;-75
2021/12/15 17:32:13;;;;;;;10.82;7.57;;;;;;;;;;12493233;28;20421;-76
2021/12/15 17:38:17;;;;;;;8.35;6.32;;;;;;;;;;12491609;28;20029;-74
2021/12/15 17:44:25;;;;;;;10.18;9.10;;;;;;;;;;12492626;28;20029;-75
2021/12/15 17:50:30;;;;;;;9.82;7.00;;;;;;;;;;12492187;28;20049;-74
2021/12/15 17:56:32;;;;;;;12.35;8.88;;;;;;;;;;12500205;28;20028;-74
2021/12/15 18:02:34;;;;;;;9.63;7.63;;;;;;;;;;12500701;28;20034;-73
2021/12/15 18:08:36;;;;;;;10.82;7.95;;;;;;;;;;12499956;28;20045;-74
2021/12/15 18:14:40;;;;;;;11.55;9.40;;;;;;;;;;12500069;28;20060;-75
2021/12/15 18:20:42;;;;;;;10.63;9.00;;;;;;;;;;12499800;28;20057;-76
2021/12/15 18:26:45;;;;;;;10.85;9.48;;;;;;;;;;12499775;28;20514;-74
2021/12/15 18:32:48;;;;;;;14.68;11.65;;;;;;;;;;12499377;28;20050;-74
2021/12/15 18:38:51;;;;;;;12.13;9.25;;;;;;;;;;12499099;28;20029;-74
2021/12/15 18:44:54;;;;;;;12.27;9.55;;;;;;;;;;12498840;28;20029;-74
2021/12/15 18:50:59;;;;;;;17.08;15.27;;;;;;;;;;12498201;28;20203;-74
2021/12/15 18:57:01;;;;;;;16.02;14.32;;;;;;;;;;12498464;28;20037;-75
2021/12/15 19:03:05;;;;;;;14.80;12.60;;;;;;;;;;12496961;28;20034;-75
2021/12/15 19:09:08;;;;;;;12.48;10.52;;;;;;;;;;12497588;28;20040;-74
2021/12/15 19:15:10;;;;;;;13.32;11.63;;;;;;;;;;12497325;28;20033;-74
2021/12/15 19:21:14;;;;;;;15.73;14.23;;;;;;;;;;12495845;28;20030;-75
2021/12/15 19:27:17;;;;;;;13.07;11.43;;;;;;;;;;12495820;28;20049;-74
2021/12/15 19:33:19;;;;;;;12.37;10.73;;;;;;;;;;12496749;28;20037;-74
2021/12/15 19:39:21;;;;;;;20.10;16.67;;;;;;;;;;12495084;28;20043;-74
2021/12/15 19:45:23;;;;;;;16.67;14.00;;;;;;;;;;12495516;28;20606;-74
2021/12/15 19:51:26;;;;;;;16.58;13.98;;;;;;;;;;12499508;28;20038;-74
2021/12/15 19:57:27;;;;;;;20.40;17.55;;;;;;;;;;12496378;28;20033;-73
2021/12/15 20:03:29;;;;;;;20.85;18.38;;;;;;;;;;12494606;28;20033;-74
2021/12/15 20:09:32;;;;;;;15.90;14.20;;;;;;;;;;12495453;28;20042;-75
2021/12/15 20:15:35;;;;;;;19.50;16.25;;;;;;;;;;12476872;28;20025;-75
2021/12/15 20:21:43;;;;;;;16.10;12.70;;;;;;;;;;12493683;28;20036;-74
2021/12/15 20:27:45;;;;;;;11.35;10.02;;;;;;;;;;12494705;28;20064;-75
2021/12/15 20:33:51;;;;;;;15.00;13.20;;;;;;;;;;12494575;28;20041;-75
2021/12/15 20:39:54;;;;;;;16.27;13.57;;;;;;;;;;12494121;28;20029;-73
2021/12/15 20:45:55;;;;;;;13.32;11.98;;;;;;;;;;12494250;28;20026;-75
2021/12/15 20:51:57;;;;;;;14.02;12.52;;;;;;;;;;12476448;28;20045;-75
2021/12/15 20:57:59;;;;;;;13.23;11.88;;;;;;;;;;12492697;28;20040;-75
2021/12/15 21:04:01;;;;;;;15.48;13.25;;;;;;;;;;12494795;28;20633;-74
2021/12/15 21:10:04;;;;;;;13.23;11.93;;;;;;;;;;12491946;28;20048;-74
2021/12/15 21:16:06;;;;;;;13.82;11.98;;;;;;;;;;12492264;28;20033;-75
2021/12/15 21:22:10;;;;;;;12.48;11.18;;;;;;;;;;12493122;28;20041;-74
2021/12/15 21:28:12;;;;;;;10.45;9.38;;;;;;;;;;12498535;28;20049;-75
2021/12/15 21:34:14;;;;;;;10.35;9.40;;;;;;;;;;12502301;28;20379;-74
2021/12/15 21:40:18;;;;;;;10.05;9.05;;;;;;;;;;12500764;28;20044;-75
2021/12/15 21:46:19;;;;;;;11.07;10.07;;;;;;;;;;12500316;28;20044;-74
2021/12/15 21:52:21;;;;;;;11.30;9.40;;;;;;;;;;12501406;28;20068;-74
2021/12/15 21:58:24;;;;;;;10.98;9.80;;;;;;;;;;12501970;28;20037;-74
2021/12/15 22:04:26;;;;;;;8.95;7.40;;;;;;;;;;12501428;28;20042;-75
2021/12/15 22:10:29;;;;;;;11.60;9.80;;;;;;;;;;12499242;28;20049;-74
2021/12/15 22:16:30;;;;;;;;;;;;;;;;;;12499797;28;20040;-74
2021/12/15 22:22:32;;;;;;;8.68;7.32;;;;;;;;;;12500181;28;19916;-75
2021/12/15 22:28:34;;;;;;;11.32;9.98;;;;;;;;;;12500516;28;20479;-73
2021/12/15 22:34:37;;;;;;;12.30;11.20;;;;;;;;;;12499972;28;20033;-73
2021/12/15 22:40:39;;;;;;;;;;;;;;;;;;12499075;28;20029;-73
2021/12/15 22:46:41;;;;;;;9.45;8.27;;;;;;;;;;12499074;28;20370;-73
2021/12/15 22:52:43;;;;;;;9.80;8.80;;;;;;;;;;12497608;28;20045;-73
2021/12/15 22:58:44;;;;;;;8.77;7.88;;;;;;;;;;12499728;28;20037;-74
2021/12/15 23:04:51;;;;;;;12.40;11.10;;;;;;;;;;12497200;28;20044;-73
2021/12/15 23:11:00;;;;;;;9.70;8.63;;;;;;;;;;12496842;28;20049;-74
2021/12/15 23:17:03;;;;;;;9.73;8.35;;;;;;;;;;12497742;28;20037;-73
2021/12/15 23:23:06;;;;;;;8.45;7.63;;;;;;;;;;12480167;28;20026;-73
2021/12/15 23:29:08;;;;;;;8.77;7.82;;;;;;;;;;12497401;28;20045;-74
